sensor_id;sensor_type;location;lat;lon;timestamp;pressure;altitude;pressure_sealevel;temperature;humidity
39341;BME280;25059;52.132;21.062;2023-04-03T00:01:48;100884.66;;;3.43;95.90
39341;BME280;25059;52.132;21.062;2023-04-03T00:04:33;100886.41;;;3.18;96.81
39341;BME280;25059;52.132;21.062;2023-04-03T00:07:17;100893.31;;;3.36;96.64
39341;BME280;25059;52.132;21.062;2023-04-03T00:10:02;100884.66;;;3.23;95.24
39341;BME280;25059;52.132;21.062;2023-04-03T00:12:47;100890.72;;;3.29;95.65
39341;BME280;25059;52.132;21.062;2023-04-03T00:15:31;100880.34;;;3.07;95.51
39341;BME280;25059;52.132;21.062;2023-04-03T00:18:17;100896.78;;;3.12;96.62
39341;BME280;25059;52.132;21.062;2023-04-03T00:21:02;100901.97;;;3.03;95.92
39341;BME280;25059;52.132;21.062;2023-04-03T00:23:47;100901.09;;;2.81;96.40
39341;BME280;25059;52.132;21.062;2023-04-03T00:26:31;100892.44;;;2.76;96.85
39341;BME280;25059;52.132;21.062;2023-04-03T00:29:16;100890.69;;;2.62;98.32
39341;BME280;25059;52.132;21.062;2023-04-03T00:32:00;100893.28;;;2.63;98.79
39341;BME280;25059;52.132;21.062;2023-04-03T00:34:47;100906.25;;;2.63;100.00
39341;BME280;25059;52.132;21.062;2023-04-03T00:37:32;100907.13;;;2.64;99.31
39341;BME280;25059;52.132;21.062;2023-04-03T00:40:17;100901.88;;;2.44;100.00
39341;BME280;25059;52.132;21.062;2023-04-03T00:43:10;100906.22;;;2.55;99.80
39341;BME280;25059;52.132;21.062;2023-04-03T00:45:57;100902.75;;;2.44;100.00
39341;BME280;25059;52.132;21.062;2023-04-03T00:48:45;100901.81;;;2.27;100.00
39341;BME280;25059;52.132;21.062;2023-04-03T00:51:31;100908.72;;;2.22;100.00
39341;BME280;25059;52.132;21.062;2023-04-03T00:54:15;100901.75;;;2.13;99.03
39341;BME280;25059;52.132;21.062;2023-04-03T00:57:00;100900.91;;;2.17;98.01
39341;BME280;25059;52.132;21.062;2023-04-03T00:59:49;100905.38;;;2.56;96.91
39341;BME280;25059;52.132;21.062;2023-04-03T01:02:35;100915.63;;;2.21;98.09
39341;BME280;25059;52.132;21.062;2023-04-03T01:05:21;100916.50;;;2.26;98.22
39341;BME280;25059;52.132;21.062;2023-04-03T01:08:06;100910.31;;;1.96;97.62
39341;BME280;25059;52.132;21.062;2023-04-03T01:10:51;100917.28;;;2.03;97.68
39341;BME280;25059;52.132;21.062;2023-04-03T01:13:35;100921.53;;;1.91;97.10
39341;BME280;25059;52.132;21.062;2023-04-03T01:16:20;100925.84;;;1.89;98.26
39341;BME280;25059;52.132;21.062;2023-04-03T01:19:09;100925.91;;;2.00;97.17
39341;BME280;25059;52.132;21.062;2023-04-03T01:22:05;100938.00;;;1.98;99.39
39341;BME280;25059;52.132;21.062;2023-04-03T01:24:55;100944.00;;;1.88;97.69
39341;BME280;25059;52.132;21.062;2023-04-03T01:27:39;100956.88;;;1.76;99.89
39341;BME280;25059;52.132;21.062;2023-04-03T01:30:30;100956.94;;;1.88;100.00
39341;BME280;25059;52.132;21.062;2023-04-03T01:33:15;100955.16;;;1.78;100.00
39341;BME280;25059;52.132;21.062;2023-04-03T01:36:02;100955.13;;;1.72;99.98
39341;BME280;25059;52.132;21.062;2023-04-03T01:38:48;100956.88;;;1.74;100.00
39341;BME280;25059;52.132;21.062;2023-04-03T01:41:33;100949.84;;;1.58;99.94
39341;BME280;25059;52.132;21.062;2023-04-03T01:44:19;100954.00;;;1.39;100.00
39341;BME280;25059;52.132;21.062;2023-04-03T01:47:06;100956.75;;;1.59;100.00
39341;BME280;25059;52.132;21.062;2023-04-03T01:49:51;100973.09;;;1.49;99.76
39341;BME280;25059;52.132;21.062;2023-04-03T01:52:35;100960.88;;;1.34;100.00
39341;BME280;25059;52.132;21.062;2023-04-03T01:55:20;100967.75;;;1.31;100.00
39341;BME280;25059;52.132;21.062;2023-04-03T01:58:04;100974.78;;;1.44;100.00
39341;BME280;25059;52.132;21.062;2023-04-03T02:00:49;100971.25;;;1.34;100.00
39341;BME280;25059;52.132;21.062;2023-04-03T02:03:34;100971.97;;;1.19;100.00
39341;BME280;25059;52.132;21.062;2023-04-03T02:06:18;100980.81;;;1.41;100.00
39341;BME280;25059;52.132;21.062;2023-04-03T02:09:03;100979.00;;;1.33;100.00
39341;BME280;25059;52.132;21.062;2023-04-03T02:11:48;100985.84;;;1.27;100.00
39341;BME280;25059;52.132;21.062;2023-04-03T02:14:32;100987.53;;;1.21;100.00
39341;BME280;25059;52.132;21.062;2023-04-03T02:17:17;100977.78;;;0.95;100.00
39341;BME280;25059;52.132;21.062;2023-04-03T02:20:02;100986.63;;;1.19;100.00
39341;BME280;25059;52.132;21.062;2023-04-03T02:22:47;100985.56;;;0.95;100.00
39341;BME280;25059;52.132;21.062;2023-04-03T02:25:32;100992.47;;;0.96;100.00
39341;BME280;25059;52.132;21.062;2023-04-03T02:28:17;100985.41;;;0.83;100.00
39341;BME280;25059;52.132;21.062;2023-04-03T02:31:03;100989.91;;;1.00;100.00
39341;BME280;25059;52.132;21.062;2023-04-03T02:33:48;100998.34;;;0.83;100.00
39341;BME280;25059;52.132;21.062;2023-04-03T02:36:32;100982.75;;;0.77;100.00
39341;BME280;25059;52.132;21.062;2023-04-03T02:39:17;100989.75;;;0.84;100.00
39341;BME280;25059;52.132;21.062;2023-04-03T02:42:01;101000.97;;;0.86;100.00
39341;BME280;25059;52.132;21.062;2023-04-03T02:44:46;100989.63;;;0.74;100.00
39341;BME280;25059;52.132;21.062;2023-04-03T02:47:31;101000.00;;;0.75;100.00
39341;BME280;25059;52.132;21.062;2023-04-03T02:50:15;101009.41;;;0.69;100.00
39341;BME280;25059;52.132;21.062;2023-04-03T02:53:00;100999.97;;;0.74;100.00
39341;BME280;25059;52.132;21.062;2023-04-03T02:55:45;100998.25;;;0.73;100.00
39341;BME280;25059;52.132;21.062;2023-04-03T02:58:30;101001.81;;;0.82;100.00
39341;BME280;25059;52.132;21.062;2023-04-03T03:01:15;101007.72;;;0.71;100.00
39341;BME280;25059;52.132;21.062;2023-04-03T03:04:00;101002.44;;;0.63;100.00
39341;BME280;25059;52.132;21.062;2023-04-03T03:06:44;101005.81;;;0.57;100.00
39341;BME280;25059;52.132;21.062;2023-04-03T03:09:29;100992.84;;;0.54;100.00
39341;BME280;25059;52.132;21.062;2023-04-03T03:12:14;100995.38;;;0.50;100.00
39341;BME280;25059;52.132;21.062;2023-04-03T03:14:59;101005.72;;;0.50;100.00
39341;BME280;25059;52.132;21.062;2023-04-03T03:17:43;101013.47;;;0.48;100.00
39341;BME280;25059;52.132;21.062;2023-04-03T03:20:28;101009.88;;;0.37;100.00
39341;BME280;25059;52.132;21.062;2023-04-03T03:23:12;100994.25;;;0.28;100.00
39341;BME280;25059;52.132;21.062;2023-04-03T03:25:59;101013.44;;;0.47;100.00
39341;BME280;25059;52.132;21.062;2023-04-03T03:28:44;101016.00;;;0.44;100.00
39341;BME280;25059;52.132;21.062;2023-04-03T03:31:29;101018.34;;;0.25;100.00
39341;BME280;25059;52.132;21.062;2023-04-03T03:34:14;101024.31;;;0.21;100.00
39341;BME280;25059;52.132;21.062;2023-04-03T03:36:59;101013.97;;;0.21;100.00
39341;BME280;25059;52.132;21.062;2023-04-03T03:39:43;101021.72;;;0.20;100.00
39341;BME280;25059;52.132;21.062;2023-04-03T03:42:28;101014.84;;;0.22;100.00
39341;BME280;25059;52.132;21.062;2023-04-03T03:45:12;101026.97;;;0.26;100.00
39341;BME280;25059;52.132;21.062;2023-04-03T03:47:58;101026.81;;;0.15;100.00
39341;BME280;25059;52.132;21.062;2023-04-03T03:50:44;101025.94;;;0.15;100.00
39341;BME280;25059;52.132;21.062;2023-04-03T03:53:28;101011.28;;;0.14;100.00
39341;BME280;25059;52.132;21.062;2023-04-03T03:56:13;101019.16;;;0.23;100.00
39341;BME280;25059;52.132;21.062;2023-04-03T03:58:58;101025.97;;;0.16;100.00
39341;BME280;25059;52.132;21.062;2023-04-03T04:01:43;101037.19;;;0.18;100.00
39341;BME280;25059;52.132;21.062;2023-04-03T04:04:27;101041.44;;;0.13;100.00
39341;BME280;25059;52.132;21.062;2023-04-03T04:07:11;101037.91;;;0.08;100.00
39341;BME280;25059;52.132;21.062;2023-04-03T04:09:56;101047.28;;;0.00;100.00
39341;BME280;25059;52.132;21.062;2023-04-03T04:12:41;101024.84;;;-0.03;100.00
39341;BME280;25059;52.132;21.062;2023-04-03T04:15:25;101046.59;;;0.13;100.00
39341;BME280;25059;52.132;21.062;2023-04-03T04:18:11;101053.44;;;0.10;100.00
39341;BME280;25059;52.132;21.062;2023-04-03T04:20:55;101037.91;;;0.08;100.00
39341;BME280;25059;52.132;21.062;2023-04-03T04:23:39;101055.22;;;0.14;100.00
39341;BME280;25059;52.132;21.062;2023-04-03T04:26:24;101050.00;;;0.09;100.00
39341;BME280;25059;52.132;21.062;2023-04-03T04:29:09;101060.31;;;0.08;100.00
39341;BME280;25059;52.132;21.062;2023-04-03T04:31:55;101057.84;;;0.15;100.00
39341;BME280;25059;52.132;21.062;2023-04-03T04:34:39;101065.66;;;0.20;100.00
39341;BME280;25059;52.132;21.062;2023-04-03T04:37:24;101079.53;;;0.26;100.00
39341;BME280;25059;52.132;21.062;2023-04-03T04:40:08;101064.00;;;0.23;100.00
39341;BME280;25059;52.132;21.062;2023-04-03T04:42:54;101069.13;;;0.20;100.00
39341;BME280;25059;52.132;21.062;2023-04-03T04:45:38;101075.31;;;0.31;100.00
39341;BME280;25059;52.132;21.062;2023-04-03T04:48:22;101075.28;;;0.28;100.00
39341;BME280;25059;52.132;21.062;2023-04-03T04:51:07;101081.59;;;0.49;100.00
39341;BME280;25059;52.132;21.062;2023-04-03T04:53:53;101093.59;;;0.45;100.00
39341;BME280;25059;52.132;21.062;2023-04-03T04:56:37;101093.59;;;0.45;100.00
39341;BME280;25059;52.132;21.062;2023-04-03T04:59:22;101088.38;;;0.41;100.00
39341;BME280;25059;52.132;21.062;2023-04-03T05:02:07;101091.97;;;0.52;100.00
39341;BME280;25059;52.132;21.062;2023-04-03T05:04:52;101084.09;;;0.43;100.00
39341;BME280;25059;52.132;21.062;2023-04-03T05:07:37;101099.06;;;0.65;100.00
39341;BME280;25059;52.132;21.062;2023-04-03T05:10:22;101095.25;;;0.39;100.00
39341;BME280;25059;52.132;21.062;2023-04-03T05:13:06;101101.53;;;0.56;100.00
39341;BME280;25059;52.132;21.062;2023-04-03T05:15:51;101081.47;;;0.40;100.00
39341;BME280;25059;52.132;21.062;2023-04-03T05:18:35;101104.09;;;0.54;100.00
39341;BME280;25059;52.132;21.062;2023-04-03T05:21:20;101108.72;;;0.78;100.00
39341;BME280;25059;52.132;21.062;2023-04-03T05:24:07;101100.66;;;0.57;100.00
39341;BME280;25059;52.132;21.062;2023-04-03T05:26:53;101115.53;;;0.72;100.00
39341;BME280;25059;52.132;21.062;2023-04-03T05:29:37;101121.78;;;0.89;100.00
39341;BME280;25059;52.132;21.062;2023-04-03T05:32:24;101115.88;;;0.98;100.00
39341;BME280;25059;52.132;21.062;2023-04-03T05:35:10;101116.66;;;0.92;100.00
39341;BME280;25059;52.132;21.062;2023-04-03T05:37:56;101119.03;;;0.77;100.00
39341;BME280;25059;52.132;21.062;2023-04-03T05:44:18;101119.34;;;1.00;100.00
39341;BME280;25059;52.132;21.062;2023-04-03T05:47:02;101124.88;;;1.30;100.00
39341;BME280;25059;52.132;21.062;2023-04-03T05:49:48;101115.13;;;1.09;100.00
39341;BME280;25059;52.132;21.062;2023-04-03T05:52:35;101119.09;;;1.55;100.00
39341;BME280;25059;52.132;21.062;2023-04-03T05:55:22;101126.88;;;1.55;100.00
39341;BME280;25059;52.132;21.062;2023-04-03T05:58:06;101125.78;;;1.35;100.00
39341;BME280;25059;52.132;21.062;2023-04-03T06:00:51;101109.69;;;1.65;100.00
39341;BME280;25059;52.132;21.062;2023-04-03T06:03:39;101118.53;;;1.87;100.00
39341;BME280;25059;52.132;21.062;2023-04-03T06:06:44;101102.03;;;1.76;99.05
39341;BME280;25059;52.132;21.062;2023-04-03T06:09:31;101134.16;;;1.96;98.73
39341;BME280;25059;52.132;21.062;2023-04-03T06:12:24;101134.38;;;2.22;97.93
39341;BME280;25059;52.132;21.062;2023-04-03T06:15:12;101138.78;;;2.31;95.57
39341;BME280;25059;52.132;21.062;2023-04-03T06:18:14;101087.34;;;1.76;95.71
39341;BME280;25059;52.132;21.062;2023-04-03T06:24:41;101125.66;;;2.14;91.02
39341;BME280;25059;52.132;21.062;2023-04-03T06:27:29;101116.78;;;1.84;91.80
39341;BME280;25059;52.132;21.062;2023-04-03T06:30:17;101147.22;;;2.07;92.89
39341;BME280;25059;52.132;21.062;2023-04-03T06:33:13;101148.97;;;2.09;93.87
39341;BME280;25059;52.132;21.062;2023-04-03T06:35:58;101139.84;;;2.63;91.83
39341;BME280;25059;52.132;21.062;2023-04-03T06:38:43;101139.78;;;2.54;91.60
39341;BME280;25059;52.132;21.062;2023-04-03T06:41:29;101154.56;;;2.64;89.46
39341;BME280;25059;52.132;21.062;2023-04-03T06:44:19;101155.44;;;2.63;90.72
39341;BME280;25059;52.132;21.062;2023-04-03T06:47:04;101159.53;;;2.31;90.08
39341;BME280;25059;52.132;21.062;2023-04-03T06:49:59;101151.66;;;2.20;88.76
39341;BME280;25059;52.132;21.062;2023-04-03T06:52:47;101163.78;;;2.24;89.54
39341;BME280;25059;52.132;21.062;2023-04-03T06:55:31;101163.75;;;2.19;89.79
39341;BME280;25059;52.132;21.062;2023-04-03T06:58:26;101166.34;;;2.18;89.80
39341;BME280;25059;52.132;21.062;2023-04-03T07:01:58;101166.66;;;2.59;88.31
39341;BME280;25059;52.132;21.062;2023-04-03T07:04:51;101175.25;;;2.50;87.64
39341;BME280;25059;52.132;21.062;2023-04-03T07:08:34;101170.09;;;2.56;88.23
39341;BME280;25059;52.132;21.062;2023-04-03T07:11:39;101176.09;;;2.51;87.74
39341;BME280;25059;52.132;21.062;2023-04-03T07:14:57;101138.06;;;2.54;87.21
39341;BME280;25059;52.132;21.062;2023-04-03T07:18:11;101189.28;;;2.81;86.41
39341;BME280;25059;52.132;21.062;2023-04-03T07:21:04;101189.44;;;3.09;84.66
39341;BME280;25059;52.132;21.062;2023-04-03T07:23:59;101185.94;;;3.02;82.59
39341;BME280;25059;52.132;21.062;2023-04-03T07:26:52;101190.31;;;3.09;80.66
39341;BME280;25059;52.132;21.062;2023-04-03T07:29:38;101172.78;;;2.73;79.27
39341;BME280;25059;52.132;21.062;2023-04-03T07:32:50;101200.84;;;3.38;79.93
39341;BME280;25059;52.132;21.062;2023-04-03T07:35:56;101190.31;;;3.09;78.81
39341;BME280;25059;52.132;21.062;2023-04-03T07:38:46;101168.63;;;3.04;77.12
39341;BME280;25059;52.132;21.062;2023-04-03T07:41:33;101196.31;;;2.98;75.39
39341;BME280;25059;52.132;21.062;2023-04-03T07:44:20;101155.59;;;2.95;77.34
39341;BME280;25059;52.132;21.062;2023-04-03T07:47:09;101194.75;;;3.35;75.52
39341;BME280;25059;52.132;21.062;2023-04-03T07:50:25;101208.72;;;3.60;75.44
39341;BME280;25059;52.132;21.062;2023-04-03T07:53:16;101207.00;;;3.71;72.29
39341;BME280;25059;52.132;21.062;2023-04-03T07:56:53;101199.22;;;3.81;72.44
39341;BME280;25059;52.132;21.062;2023-04-03T07:59:42;101197.38;;;3.44;70.73
39341;BME280;25059;52.132;21.062;2023-04-03T08:02:30;101188.81;;;3.68;70.18
39341;BME280;25059;52.132;21.062;2023-04-03T08:05:37;101184.50;;;3.83;66.60
39341;BME280;25059;52.132;21.062;2023-04-03T08:08:34;101182.72;;;3.67;63.72
39341;BME280;25059;52.132;21.062;2023-04-03T08:11:34;101116.00;;;3.75;63.65
39341;BME280;25059;52.132;21.062;2023-04-03T08:14:22;101194.06;;;4.04;63.63
39341;BME280;25059;52.132;21.062;2023-04-03T08:17:32;101193.22;;;4.11;61.49
39341;BME280;25059;52.132;21.062;2023-04-03T08:20:20;101182.75;;;3.76;62.85
39341;BME280;25059;52.132;21.062;2023-04-03T08:23:08;101184.53;;;4.18;63.34
39341;BME280;25059;52.132;21.062;2023-04-03T08:25:53;101216.63;;;4.10;61.74
39341;BME280;25059;52.132;21.062;2023-04-03T08:28:43;101205.38;;;4.35;59.87
39341;BME280;25059;52.132;21.062;2023-04-03T08:31:32;101203.63;;;4.27;59.19
39341;BME280;25059;52.132;21.062;2023-04-03T08:34:18;101211.44;;;4.37;59.24
39341;BME280;25059;52.132;21.062;2023-04-03T08:37:04;101181.06;;;4.59;57.97
39341;BME280;25059;52.132;21.062;2023-04-03T08:39:49;101190.59;;;4.63;56.67
39341;BME280;25059;52.132;21.062;2023-04-03T08:42:47;101174.81;;;5.21;56.27
39341;BME280;25059;52.132;21.062;2023-04-03T08:45:54;101199.09;;;5.35;54.07
39341;BME280;25059;52.132;21.062;2023-04-03T08:48:47;101198.34;;;5.06;52.94
39341;BME280;25059;52.132;21.062;2023-04-03T08:51:45;101203.44;;;5.39;50.71
39341;BME280;25059;52.132;21.062;2023-04-03T08:55:29;101201.28;;;6.16;52.26
39341;BME280;25059;52.132;21.062;2023-04-03T09:07:30;101205.63;;;7.13;46.41
39341;BME280;25059;52.132;21.062;2023-04-03T09:10:59;101179.31;;;7.27;47.50
39341;BME280;25059;52.132;21.062;2023-04-03T09:23:27;101206.91;;;6.73;44.44
39341;BME280;25059;52.132;21.062;2023-04-03T09:26:19;101191.03;;;6.91;45.17
39341;BME280;25059;52.132;21.062;2023-04-03T09:29:07;101207.44;;;7.05;45.23
39341;BME280;25059;52.132;21.062;2023-04-03T09:35:26;101200.69;;;7.61;44.56
39341;BME280;25059;52.132;21.062;2023-04-03T09:38:21;101204.84;;;7.76;43.83
39341;BME280;25059;52.132;21.062;2023-04-03T09:41:15;101205.25;;;7.45;43.11
39341;BME280;25059;52.132;21.062;2023-04-03T09:44:31;101214.22;;;7.23;42.66
39341;BME280;25059;52.132;21.062;2023-04-03T09:55:47;101208.03;;;7.98;43.84
39341;BME280;25059;52.132;21.062;2023-04-03T09:58:45;101193.94;;;8.06;42.50
39341;BME280;25059;52.132;21.062;2023-04-03T10:01:58;101201.78;;;8.06;41.82
39341;BME280;25059;52.132;21.062;2023-04-03T10:04:46;101212.31;;;8.60;41.95
39341;BME280;25059;52.132;21.062;2023-04-03T10:07:49;101218.81;;;8.36;39.99
39341;BME280;25059;52.132;21.062;2023-04-03T10:10:41;101208.84;;;8.58;39.01
39341;BME280;25059;52.132;21.062;2023-04-03T10:14:10;101213.16;;;8.05;39.30
39341;BME280;25059;52.132;21.062;2023-04-03T10:20:40;101181.72;;;13.42;34.52
39341;BME280;25059;52.132;21.062;2023-04-03T10:23:55;101191.97;;;13.02;32.66
39341;BME280;25059;52.132;21.062;2023-04-03T10:34:44;101206.47;;;9.38;36.54
39341;BME280;25059;52.132;21.062;2023-04-03T10:38:04;101179.03;;;11.29;33.56
39341;BME280;25059;52.132;21.062;2023-04-03T10:41:15;101175.09;;;13.06;30.67
39341;BME280;25059;52.132;21.062;2023-04-03T10:51:22;101197.91;;;10.48;34.40
39341;BME280;25059;52.132;21.062;2023-04-03T11:01:02;101169.50;;;17.77;25.86
39341;BME280;25059;52.132;21.062;2023-04-03T11:03:53;101175.94;;;17.39;23.91
39341;BME280;25059;52.132;21.062;2023-04-03T11:06:48;101175.53;;;17.47;24.01
39341;BME280;25059;52.132;21.062;2023-04-03T11:09:41;101160.91;;;16.72;23.68
39341;BME280;25059;52.132;21.062;2023-04-03T11:12:40;101154.16;;;17.49;23.79
39341;BME280;25059;52.132;21.062;2023-04-03T11:15:30;101142.03;;;19.95;21.92
39341;BME280;25059;52.132;21.062;2023-04-03T11:18:26;101159.59;;;19.85;21.75
39341;BME280;25059;52.132;21.062;2023-04-03T11:21:20;101173.00;;;16.78;23.85
39341;BME280;25059;52.132;21.062;2023-04-03T11:24:32;101147.44;;;17.90;22.59
39341;BME280;25059;52.132;21.062;2023-04-03T11:27:22;101177.78;;;15.04;25.11
39341;BME280;25059;52.132;21.062;2023-04-03T11:33:28;101184.69;;;12.58;28.98
39341;BME280;25059;52.132;21.062;2023-04-03T11:45:29;101174.50;;;9.61;33.29
39341;BME280;25059;52.132;21.062;2023-04-03T11:51:39;101156.81;;;16.48;25.23
39341;BME280;25059;52.132;21.062;2023-04-03T11:54:46;101147.00;;;19.87;22.57
39341;BME280;25059;52.132;21.062;2023-04-03T11:57:47;101143.06;;;17.73;22.63
39341;BME280;25059;52.132;21.062;2023-04-03T12:00:50;101154.34;;;13.67;25.85
39341;BME280;25059;52.132;21.062;2023-04-03T12:35:54;101162.69;;;13.56;26.93
39341;BME280;25059;52.132;21.062;2023-04-03T12:39:01;101153.72;;;15.08;26.61
39341;BME280;25059;52.132;21.062;2023-04-03T12:47:49;101150.19;;;14.69;25.42
39341;BME280;25059;52.132;21.062;2023-04-03T12:50:40;101156.31;;;15.68;24.71
39341;BME280;25059;52.132;21.062;2023-04-03T12:53:28;101149.53;;;17.03;23.39
39341;BME280;25059;52.132;21.062;2023-04-03T12:56:29;101142.75;;;18.25;22.52
39341;BME280;25059;52.132;21.062;2023-04-03T12:59:22;101152.75;;;16.41;22.89
39341;BME280;25059;52.132;21.062;2023-04-03T13:05:17;101167.13;;;12.05;27.47
39341;BME280;25059;52.132;21.062;2023-04-03T13:08:19;101181.97;;;11.79;28.86
39341;BME280;25059;52.132;21.062;2023-04-03T13:11:16;101174.75;;;11.25;29.08
39341;BME280;25059;52.132;21.062;2023-04-03T13:14:15;101151.06;;;12.12;28.51
39341;BME280;25059;52.132;21.062;2023-04-03T13:20:09;101167.25;;;11.12;29.68
39341;BME280;25059;52.132;21.062;2023-04-03T13:23:00;101155.75;;;14.63;25.61
39341;BME280;25059;52.132;21.062;2023-04-03T13:25:46;101137.31;;;17.81;22.28
39341;BME280;25059;52.132;21.062;2023-04-03T13:28:35;101136.78;;;17.90;21.78
39341;BME280;25059;52.132;21.062;2023-04-03T13:31:26;101122.91;;;18.61;21.18
39341;BME280;25059;52.132;21.062;2023-04-03T13:34:17;101143.63;;;14.77;23.35
39341;BME280;25059;52.132;21.062;2023-04-03T13:37:11;101146.06;;;13.31;25.77
39341;BME280;25059;52.132;21.062;2023-04-03T13:40:12;101147.88;;;12.29;26.49
39341;BME280;25059;52.132;21.062;2023-04-03T13:43:06;101147.78;;;11.78;27.28
39341;BME280;25059;52.132;21.062;2023-04-03T13:49:17;101140.88;;;12.79;26.87
39341;BME280;25059;52.132;21.062;2023-04-03T13:52:34;101161.81;;;11.78;28.30
39341;BME280;25059;52.132;21.062;2023-04-03T13:55:28;101172.78;;;11.03;30.05
39341;BME280;25059;52.132;21.062;2023-04-03T14:04:28;101150.13;;;13.63;27.25
39341;BME280;25059;52.132;21.062;2023-04-03T14:07:16;101160.69;;;12.40;28.79
39341;BME280;25059;52.132;21.062;2023-04-03T14:10:02;101168.19;;;11.40;30.12
39341;BME280;25059;52.132;21.062;2023-04-03T14:12:49;101157.88;;;14.11;25.65
39341;BME280;25059;52.132;21.062;2023-04-03T14:15:41;101159.78;;;11.57;28.59
39341;BME280;25059;52.132;21.062;2023-04-03T14:18:27;101159.13;;;11.19;29.61
39341;BME280;25059;52.132;21.062;2023-04-03T14:21:14;101160.84;;;10.89;30.41
39341;BME280;25059;52.132;21.062;2023-04-03T14:24:02;101162.75;;;10.15;31.38
39341;BME280;25059;52.132;21.062;2023-04-03T14:26:51;101167.38;;;9.66;31.32
39341;BME280;25059;52.132;21.062;2023-04-03T14:29:36;101160.34;;;10.43;30.24
39341;BME280;25059;52.132;21.062;2023-04-03T14:32:25;101154.28;;;9.65;31.31
39341;BME280;25059;52.132;21.062;2023-04-03T14:35:13;101170.16;;;9.17;32.15
39341;BME280;25059;52.132;21.062;2023-04-03T14:38:01;101162.34;;;9.14;32.82
39341;BME280;25059;52.132;21.062;2023-04-03T14:40:48;101158.47;;;8.90;33.78
39341;BME280;25059;52.132;21.062;2023-04-03T14:43:38;101167.44;;;9.22;33.62
39341;BME280;25059;52.132;21.062;2023-04-03T14:46:28;101159.50;;;9.25;32.42
39341;BME280;25059;52.132;21.062;2023-04-03T14:49:21;101162.25;;;9.19;32.40
39341;BME280;25059;52.132;21.062;2023-04-03T14:52:18;101166.38;;;9.32;33.41
39341;BME280;25059;52.132;21.062;2023-04-03T14:55:06;101163.13;;;8.74;33.24
39341;BME280;25059;52.132;21.062;2023-04-03T14:57:53;101161.28;;;8.29;34.04
39341;BME280;25059;52.132;21.062;2023-04-03T15:00:38;101179.06;;;8.08;34.79
39341;BME280;25059;52.132;21.062;2023-04-03T15:03:22;101167.66;;;7.51;34.61
39341;BME280;25059;52.132;21.062;2023-04-03T15:06:14;101182.03;;;7.84;35.63
39341;BME280;25059;52.132;21.062;2023-04-03T15:08:59;101163.38;;;7.47;35.18
39341;BME280;25059;52.132;21.062;2023-04-03T15:11:45;101176.97;;;7.72;34.96
39341;BME280;25059;52.132;21.062;2023-04-03T15:14:30;101169.97;;;7.74;34.08
39341;BME280;25059;52.132;21.062;2023-04-03T15:17:17;101172.38;;;7.89;34.83
39341;BME280;25059;52.132;21.062;2023-04-03T15:20:13;101164.38;;;7.98;35.37
39341;BME280;25059;52.132;21.062;2023-04-03T15:23:00;101159.84;;;8.09;35.40
39341;BME280;25059;52.132;21.062;2023-04-03T15:25:49;101154.56;;;8.11;35.72
39341;BME280;25059;52.132;21.062;2023-04-03T15:28:35;101170.13;;;7.62;35.39
39341;BME280;25059;52.132;21.062;2023-04-03T15:31:20;101164.88;;;7.65;35.65
39341;BME280;25059;52.132;21.062;2023-04-03T15:34:04;101171.28;;;7.41;35.04
39341;BME280;25059;52.132;21.062;2023-04-03T15:36:50;101180.44;;;7.05;35.67
39341;BME280;25059;52.132;21.062;2023-04-03T15:39:36;101178.72;;;7.04;36.42
39341;BME280;25059;52.132;21.062;2023-04-03T15:42:21;101168.38;;;6.92;37.23
39341;BME280;25059;52.132;21.062;2023-04-03T15:45:06;101169.41;;;6.78;37.92
39341;BME280;25059;52.132;21.062;2023-04-03T15:47:51;101175.56;;;6.73;38.05
39341;BME280;25059;52.132;21.062;2023-04-03T15:50:36;101173.63;;;6.90;38.21
39341;BME280;25059;52.132;21.062;2023-04-03T15:53:20;101178.31;;;6.56;37.59
39341;BME280;25059;52.132;21.062;2023-04-03T15:56:05;101175.66;;;6.62;37.20
39341;BME280;25059;52.132;21.062;2023-04-03T15:58:54;101162.72;;;6.50;37.13
39341;BME280;25059;52.132;21.062;2023-04-03T16:01:39;101168.66;;;6.66;36.93
39341;BME280;25059;52.132;21.062;2023-04-03T16:04:24;101173.16;;;6.48;37.81
39341;BME280;25059;52.132;21.062;2023-04-03T16:07:09;101159.28;;;6.45;38.00
39341;BME280;25059;52.132;21.062;2023-04-03T16:09:53;101163.66;;;6.40;38.42
39341;BME280;25059;52.132;21.062;2023-04-03T16:12:39;101162.97;;;6.21;38.33
39341;BME280;25059;52.132;21.062;2023-04-03T16:15:31;101163.88;;;6.15;38.80
39341;BME280;25059;52.132;21.062;2023-04-03T16:18:17;101169.06;;;6.20;39.04
39341;BME280;25059;52.132;21.062;2023-04-03T16:21:02;101166.34;;;6.32;38.80
39341;BME280;25059;52.132;21.062;2023-04-03T16:23:47;101160.28;;;6.29;38.99
39341;BME280;25059;52.132;21.062;2023-04-03T16:26:32;101182.25;;;6.02;38.76
39341;BME280;25059;52.132;21.062;2023-04-03T16:29:16;101170.94;;;6.01;39.70
39341;BME280;25059;52.132;21.062;2023-04-03T16:32:01;101170.00;;;6.10;39.71
39341;BME280;25059;52.132;21.062;2023-04-03T16:34:47;101175.19;;;6.16;39.86
39341;BME280;25059;52.132;21.062;2023-04-03T16:37:32;101167.41;;;6.08;39.84
39341;BME280;25059;52.132;21.062;2023-04-03T16:40:17;101167.56;;;5.82;40.43
39341;BME280;25059;52.132;21.062;2023-04-03T16:43:02;101187.63;;;5.70;40.40
39341;BME280;25059;52.132;21.062;2023-04-03T16:45:46;101192.88;;;5.64;40.23
39341;BME280;25059;52.132;21.062;2023-04-03T16:48:31;101169.47;;;5.55;40.39
39341;BME280;25059;52.132;21.062;2023-04-03T16:51:16;101181.63;;;5.54;40.20
39341;BME280;25059;52.132;21.062;2023-04-03T16:54:01;101188.63;;;5.44;40.82
39341;BME280;25059;52.132;21.062;2023-04-03T16:56:45;101200.81;;;5.39;41.07